Grand Ruby — 3EIU3 — position and weather

sailwx.info

Track history (hours):
 
Tides and Currents Weather Stations Pressure Air Temp Water Temp Dewpoint Dewpoint Depression Visibility Wind Speed Wind Dir Waves Ship Positions

Grand Ruby

Last reported at 2015-May-28 06:21 UTC. Time now 2015-May-29 20:19 UTC.
Position N 19°25' W 095°47'.

Length 200 m; draft 9.4 m.

Type: Cargo ship. MMSI: 372399000.

Date/timePositionNaut miles runAvg speedWind from/ knotsBaromVisibWave heightAir tempDewpointWater temp
2015-May-28 06:21N 19°25' W 095°47'1215.3
2015-May-28 05:33N 19°17' W 095°57'1110.6
2015-May-28 04:33N 19°12' W 096°07'1 1.3
2015-May-28 03:33N 19°13' W 096°08'0 0.0
2015-May-28 02:33N 19°13' W 096°08'0 0.0
2015-May-28 01:33N 19°13' W 096°08'0 0.0
2015-May-28 00:33N 19°13' W 096°08'0 0.0
2015-May-27 23:33N 19°13' W 096°08'0 0.0
2015-May-27 22:33N 19°13' W 096°08'0 0.0
2015-May-27 21:33N 19°13' W 096°08'0 0.0
2015-May-27 20:33N 19°13' W 096°08'0 0.0
2015-May-27 19:33N 19°13' W 096°08'0 0.0
2015-May-27 18:33N 19°13' W 096°08'0 0.0
2015-May-27 17:33N 19°13' W 096°08'0 0.0
2015-May-27 16:33N 19°13' W 096°08'5 4.6
2015-May-27 15:33N 19°11' W 096°04'7 7.2
2015-May-27 14:33N 19°18' W 096°00'8 7.6
2015-May-27 13:34N 19°24' W 095°56'1515.0
2015-May-27 12:33N 19°32' W 095°42'  
2015-May-25 01:33N 25°43' W 079°30'1414.5
2015-May-25 00:33N 25°57' W 079°26'1515.5
2015-May-24 23:33N 26°12' W 079°24'1915.7
2015-May-24 22:19N 26°32' W 079°23'1216.0
2015-May-24 21:33N 26°44' W 079°24'  
2015-May-22 14:15N 31°46' W 079°01'1415.4
2015-May-22 13:21N 31°55' W 078°48'14916.6
2015-May-22 04:21N 33°39' W 076°41'24412.3
2015-May-21 08:28N 37°42' W 076°10'1516.2
2015-May-21 07:33N 37°56' W 076°11'1716.8
2015-May-21 06:32N 38°13' W 076°15'2317.5
2015-May-21 05:13N 38°35' W 076°26'1217.7
2015-May-21 04:31N 38°47' W 076°25'1616.6
2015-May-21 03:33N 39°03' W 076°23'1212.1
2015-May-21 02:33N 39°13' W 076°32'1 1.4
2015-May-21 01:32N 39°14' W 076°32'0 0.0
2015-May-21 00:32N 39°14' W 076°32'0 0.0
2015-May-20 23:32N 39°14' W 076°32'0 0.0
2015-May-20 22:32N 39°14' W 076°32'0 0.0
2015-May-20 21:32N 39°14' W 076°32'0 0.0
2015-May-20 20:32N 39°14' W 076°32'0 0.0
2015-May-20 19:32N 39°14' W 076°32'0 0.0
2015-May-20 18:32N 39°14' W 076°32'0 0.0
2015-May-20 17:32N 39°14' W 076°32'1 0.6
2015-May-20 16:33N 39°14' W 076°32'7 7.3
2015-May-20 15:33N 39°10' W 076°24'10 9.7
2015-May-20 14:33N 39°16' W 076°14'1211.8
2015-May-20 13:33N 39°24' W 076°03'1010.0
2015-May-20 12:33N 39°31' W 075°53'6 6.2
2015-May-20 11:33N 39°32' W 075°46'9 9.4
2015-May-20 10:33N 39°34' W 075°34'1110.7
2015-May-20 09:33N 39°23' W 075°29'1413.8
2015-May-20 08:33N 39°13' W 075°18'1414.2
2015-May-20 07:33N 39°01' W 075°09'1413.5
2015-May-20 06:33N 38°48' W 075°02'1212.4
2015-May-20 05:33N 38°48' W 074°47'1616.3
2015-May-20 04:33N 38°50' W 074°26'1717.0
2015-May-20 03:33N 38°54' W 074°05'3517.3
2015-May-20 01:33N 39°01' W 073°21'1817.9
2015-May-20 00:33N 39°05' W 072°59'1818.0
2015-May-19 23:34N 39°11' W 072°37'1817.8
2015-May-19 22:34N 39°18' W 072°16'2017.0
2015-May-19 21:24N 39°25' W 071°52'1417.0
2015-May-19 20:34N 39°30' W 071°34'5317.5
2015-May-19 17:33N 39°50' W 070°31'1716.8
2015-May-19 16:34N 39°56' W 070°11'1817.2
2015-May-19 15:32N 40°03' W 069°50'1717.8
2015-May-19 14:33N 40°10' W 069°29'1818.1
2015-May-19 13:34N 40°17' W 069°07'1818.2
2015-May-19 12:34N 40°23' W 068°45'1818.5
2015-May-19 11:34N 40°33' W 068°24'1918.9
2015-May-19 10:34N 40°43' W 068°02'1919.1
2015-May-19 09:33N 40°53' W 067°41'2118.9
2015-May-19 08:26N 41°07' W 067°20'1618.8
2015-May-19 07:33N 41°18' W 067°04'1818.1
2015-May-19 06:33N 41°29' W 066°45'1717.5
2015-May-19 05:34N 41°41' W 066°28'2116.9
2015-May-19 04:20N 41°56' W 066°08'17916.2
2015-May-18 17:18N 44°09' W 063°25'1216.3
2015-May-18 16:33N 44°21' W 063°27'1312.6
2015-May-18 15:33N 44°33' W 063°32'4 4.0
2015-May-18 14:33N 44°37' W 063°31'0 0.0
2015-May-18 13:29N 44°37' W 063°31'0 0.0
2015-May-18 12:29N 44°37' W 063°31'0 0.0
2015-May-18 11:29N 44°37' W 063°31'0 0.0
2015-May-18 10:32N 44°37' W 063°31'0 0.0
2015-May-18 09:32N 44°37' W 063°31'0 0.0
2015-May-18 08:32N 44°37' W 063°31'0 0.0
2015-May-18 07:29N 44°37' W 063°31'0 0.0
2015-May-18 06:32N 44°37' W 063°31'  
Track history (hours):
 
Tides and Currents Weather Stations Pressure Air Temp Water Temp Dewpoint Dewpoint Depression Visibility Wind Speed Wind Dir Waves Ship Positions

Grand Ruby

Last reported at 2015-May-28 06:21 UTC. Time now 2015-May-29 20:19 UTC.
Position N 19°25' W 095°47'.

Length 200 m; draft 9.4 m.

Type: Cargo ship. MMSI: 372399000.

Date/timePositionNaut miles runAvg speedWind from/ knotsBaromVisibWave heightAir tempDewpointWater temp
2015-May-28 06:21N 19°25' W 095°47'1215.3
2015-May-28 05:33N 19°17' W 095°57'1110.6
2015-May-28 04:33N 19°12' W 096°07'1 1.3
2015-May-28 03:33N 19°13' W 096°08'0 0.0
2015-May-28 02:33N 19°13' W 096°08'0 0.0
2015-May-28 01:33N 19°13' W 096°08'0 0.0
2015-May-28 00:33N 19°13' W 096°08'0 0.0
2015-May-27 23:33N 19°13' W 096°08'0 0.0
2015-May-27 22:33N 19°13' W 096°08'0 0.0
2015-May-27 21:33N 19°13' W 096°08'0 0.0
2015-May-27 20:33N 19°13' W 096°08'0 0.0
2015-May-27 19:33N 19°13' W 096°08'0 0.0
2015-May-27 18:33N 19°13' W 096°08'0 0.0
2015-May-27 17:33N 19°13' W 096°08'0 0.0
2015-May-27 16:33N 19°13' W 096°08'5 4.6
2015-May-27 15:33N 19°11' W 096°04'7 7.2
2015-May-27 14:33N 19°18' W 096°00'8 7.6
2015-May-27 13:34N 19°24' W 095°56'1515.0
2015-May-27 12:33N 19°32' W 095°42'  
2015-May-25 01:33N 25°43' W 079°30'1414.5
2015-May-25 00:33N 25°57' W 079°26'1515.5
2015-May-24 23:33N 26°12' W 079°24'1915.7
2015-May-24 22:19N 26°32' W 079°23'1216.0
2015-May-24 21:33N 26°44' W 079°24'  
2015-May-22 14:15N 31°46' W 079°01'1415.4
2015-May-22 13:21N 31°55' W 078°48'14916.6
2015-May-22 04:21N 33°39' W 076°41'24412.3
2015-May-21 08:28N 37°42' W 076°10'1516.2
2015-May-21 07:33N 37°56' W 076°11'1716.8
2015-May-21 06:32N 38°13' W 076°15'2317.5
2015-May-21 05:13N 38°35' W 076°26'1217.7
2015-May-21 04:31N 38°47' W 076°25'1616.6
2015-May-21 03:33N 39°03' W 076°23'1212.1
2015-May-21 02:33N 39°13' W 076°32'1 1.4
2015-May-21 01:32N 39°14' W 076°32'0 0.0
2015-May-21 00:32N 39°14' W 076°32'0 0.0
2015-May-20 23:32N 39°14' W 076°32'0 0.0
2015-May-20 22:32N 39°14' W 076°32'0 0.0
2015-May-20 21:32N 39°14' W 076°32'0 0.0
2015-May-20 20:32N 39°14' W 076°32'0 0.0
2015-May-20 19:32N 39°14' W 076°32'0 0.0
2015-May-20 18:32N 39°14' W 076°32'0 0.0
2015-May-20 17:32N 39°14' W 076°32'1 0.6
2015-May-20 16:33N 39°14' W 076°32'7 7.3
2015-May-20 15:33N 39°10' W 076°24'10 9.7
2015-May-20 14:33N 39°16' W 076°14'1211.8
2015-May-20 13:33N 39°24' W 076°03'1010.0
2015-May-20 12:33N 39°31' W 075°53'6 6.2
2015-May-20 11:33N 39°32' W 075°46'9 9.4
2015-May-20 10:33N 39°34' W 075°34'1110.7
2015-May-20 09:33N 39°23' W 075°29'1413.8
2015-May-20 08:33N 39°13' W 075°18'1414.2
2015-May-20 07:33N 39°01' W 075°09'1413.5
2015-May-20 06:33N 38°48' W 075°02'1212.4
2015-May-20 05:33N 38°48' W 074°47'1616.3
2015-May-20 04:33N 38°50' W 074°26'1717.0
2015-May-20 03:33N 38°54' W 074°05'3517.3
2015-May-20 01:33N 39°01' W 073°21'1817.9
2015-May-20 00:33N 39°05' W 072°59'1818.0
2015-May-19 23:34N 39°11' W 072°37'1817.8
2015-May-19 22:34N 39°18' W 072°16'2017.0
2015-May-19 21:24N 39°25' W 071°52'1417.0
2015-May-19 20:34N 39°30' W 071°34'5317.5
2015-May-19 17:33N 39°50' W 070°31'1716.8
2015-May-19 16:34N 39°56' W 070°11'1817.2
2015-May-19 15:32N 40°03' W 069°50'1717.8
2015-May-19 14:33N 40°10' W 069°29'1818.1
2015-May-19 13:34N 40°17' W 069°07'1818.2
2015-May-19 12:34N 40°23' W 068°45'1818.5
2015-May-19 11:34N 40°33' W 068°24'1918.9
2015-May-19 10:34N 40°43' W 068°02'1919.1
2015-May-19 09:33N 40°53' W 067°41'2118.9
2015-May-19 08:26N 41°07' W 067°20'1618.8
2015-May-19 07:33N 41°18' W 067°04'1818.1
2015-May-19 06:33N 41°29' W 066°45'1717.5
2015-May-19 05:34N 41°41' W 066°28'2116.9
2015-May-19 04:20N 41°56' W 066°08'17916.2
2015-May-18 17:18N 44°09' W 063°25'1216.3
2015-May-18 16:33N 44°21' W 063°27'1312.6
2015-May-18 15:33N 44°33' W 063°32'4 4.0
2015-May-18 14:33N 44°37' W 063°31'0 0.0
2015-May-18 13:29N 44°37' W 063°31'0 0.0
2015-May-18 12:29N 44°37' W 063°31'0 0.0
2015-May-18 11:29N 44°37' W 063°31'0 0.0
2015-May-18 10:32N 44°37' W 063°31'0 0.0
2015-May-18 09:32N 44°37' W 063°31'0 0.0
2015-May-18 08:32N 44°37' W 063°31'0 0.0
2015-May-18 07:29N 44°37' W 063°31'0 0.0
2015-May-18 06:32N 44°37' W 063°31'  

Dump ship's entire track history